Portada
METAR-TAF:

METAR-TAF

Aeroports :

Puerto Cabezas, Nicaragua

latitud: 14-03N, longitud: 083-22W, altitud: 20 m

Observació

L'informe es va fer fa 1 hora i 24 minuts, a les 18:00 UTC
Vent 10 kt del Est/Nord-Est
Temperatura 30°C
Humitat 75%
Pressió 1012 hPa
Visibilitat: 7000 m
Cel ennuvolat a una alçada de 1600 ft
calitja

METAR: MNPC 211800Z 07010KT 7000 BKN016 30/25 Q1012 HZ

Hora: 13:24 (19:24 UTC)

Pronòstic

L'informe es va fer fa 4 hores i 10 minuts, a les 15:14 UTC
Pronòstic vàlid del 21 a les 18 UTC al 22 a les 18 UTC
Vent 6 kt del Nord
Visibilitat: 7000 m
Núvols disperses a una alçada de 1600 ft
calitja
Temporalment
l' 21 a les 20 UTC al 22 a les 03 UTC
Visibilitat: 5000 m
Cel ennuvolat a una alçada de 1600 ft

TAF: MNPC 211514Z 2118/2218 36006KT 7000 HZ SCT016 TEMPO 2120/2203 5000 DZ/RA BKN016

Observacions i pronòstics meteorològics de més de 4000 aeroports (METAR i TAF).

Les estacions disponibles són els punts grocs i vermells al mapa.

Posi el ratolí al punt desitjat per veure el nom de l'estació.

Feu clic per veure les observacions i els pronòstics meteorològics.

Per canviar el mapa: feu clic els botons verds amb una creu de color negre per apropar; al botó verd amb un guió per allunyar la imatge; o en les fletxes verdes per a mapes adjacents.


METAR-TAF: